Latest Weather Observations for Edenhope

IDV60801

Issued at 11:05 pm EST Tuesday 22 July 2014 (issued every 30 minutes, with the page automatically refreshed every 10 minutes)

About weather observations | Map of weather stations | Latest weather observations for VIC | Other Formats
Station Details ID: 079099 Name: EDENHOPE AIRPORT Lat: -37.02 Lon: 141.27 Height: 155.0 m
Data from the previous 72 hours. | See also: Recent months at Edenhope
Date/Time
EST
Temp
°C
App
Temp
°C
Dew
Point
Rel
Hum
%
Delta-T
°C
Wind Press
QNH
hPa
Press
MSL
hPa
Rain
since 9 am
mm
Dir
 
Spd
km/h
Gust
km/h
Spd
kts
Gust
kts
22/11:00pm 3.6 0.7 2.4 92 0.5 E 7 9 4 5 - - 0.0
22/10:30pm 3.9 1.2 2.4 90 0.6 ENE 6 7 3 4 - - 0.0
22/10:00pm 4.6 1.8 2.9 89 0.7 ENE 7 9 4 5 - - 0.0
22/09:30pm 5.7 3.1 3.4 85 1.0 ENE 6 7 3 4 - - 0.0
22/09:00pm 6.8 4.3 4.5 85 1.0 NNE 7 11 4 6 - - 0.0
22/08:30pm 6.8 4.4 5.1 89 0.8 NNE 7 9 4 5 - - 0.0
22/08:00pm 5.8 3.2 4.4 91 0.6 ENE 7 7 4 4 - - 0.0
22/07:30pm 6.3 4.0 4.6 89 0.7 E 6 7 3 4 - - 0.0
22/07:00pm 6.9 4.6 4.9 87 0.9 E 6 7 3 4 - - 0.0
22/06:30pm 7.8 5.6 5.1 83 1.2 ENE 6 6 3 3 - - 0.0
22/06:00pm 9.0 6.7 5.0 76 1.8 ENE 6 6 3 3 - - 0.0
22/05:30pm 11.5 9.7 5.4 66 2.8 NE 4 4 2 2 - - 0.0
22/05:00pm 12.6 10.4 5.5 62 3.3 ENE 6 7 3 4 - - 0.0
22/04:30pm 13.3 11.5 5.2 58 3.8 NE 4 6 2 3 - - 0.0
22/04:00pm 13.6 11.4 5.3 57 3.9 ENE 6 11 3 6 - - 0.0
22/03:30pm 14.2 12.8 5.3 55 4.2 ENE 2 6 1 3 - - 0.0
22/03:00pm 13.8 11.5 4.7 54 4.2 N 6 9 3 5 - - 0.0
22/02:30pm 13.8 11.6 5.2 56 4.1 NNE 6 9 3 5 - - 0.0
22/02:00pm 13.6 11.6 4.5 54 4.2 N 4 7 2 4 - - 0.0
22/01:30pm 13.2 11.0 5.1 58 3.8 N 6 9 3 5 - - 0.0
22/01:00pm 12.2 9.6 4.4 59 3.6 NNE 7 13 4 7 - - 0.0
22/12:30pm 12.1 9.7 5.3 63 3.2 NNE 7 13 4 7 - - 0.0
22/12:00pm 11.7 9.6 5.8 67 2.8 NNE 6 11 3 6 - - 0.0
22/11:30am 10.6 8.5 6.7 77 1.9 NNE 7 9 4 5 - - 0.0
22/11:00am 9.3 7.5 8.1 92 0.6 NE 7 11 4 6 - - 0.0
22/10:30am 8.0 6.1 7.6 97 0.2 NE 7 13 4 7 - - 0.0
22/10:00am 6.1 4.0 5.8 98 0.1 ENE 6 9 3 5 - - 0.0
22/09:30am 3.7 0.9 3.4 98 0.1 ENE 7 11 4 6 - - 0.0
22/09:00am 2.2 -0.6 1.9 98 0.1 ENE 6 9 3 5 - - 0.4
22/08:30am 0.8 -2.5 0.4 97 0.1 E 7 9 4 5 - - 0.4
22/08:00am 0.6 -2.7 0.2 97 0.1 ENE 7 9 4 5 - - 0.4
22/07:30am 1.0 -2.6 0.6 97 0.1 E 9 11 5 6 - - 0.0
22/07:00am 1.4 -1.8 1.0 97 0.2 E 7 11 4 6 - - 0.0
22/06:30am 1.5 -1.6 1.1 97 0.2 E 7 9 4 5 - - 0.0
22/06:00am 1.6 -1.3 1.2 97 0.2 E 6 7 3 4 - - 0.0
22/05:30am 2.5 -0.9 2.1 97 0.2 ENE 9 11 5 6 - - 0.0
22/05:00am 2.9 0.1 2.3 96 0.2 ENE 6 7 3 4 - - 0.0
22/04:30am 3.0 0.3 2.4 96 0.2 ENE 6 6 3 3 - - 0.0
22/04:00am 3.5 0.7 2.9 96 0.2 ENE 7 9 4 5 - - 0.0
22/03:30am 3.7 0.9 3.1 96 0.2 ENE 7 9 4 5 - - 0.0
22/03:00am 3.7 0.9 3.1 96 0.2 ENE 7 11 4 6 - - 0.0
22/02:30am 3.3 0.0 2.7 96 0.2 E 9 11 5 6 - - 0.0
22/02:00am 3.6 0.4 2.9 95 0.3 ENE 9 9 5 5 - - 0.0
22/01:30am 3.8 0.6 3.1 95 0.3 ENE 9 11 5 6 - - 0.0
22/01:00am 4.0 0.8 3.3 95 0.3 ENE 9 11 5 6 - - 0.0
22/12:30am 3.8 1.0 2.9 94 0.4 ENE 7 11 4 6 - - 0.0
22/12:00am 4.0 0.8 3.0 93 0.4 ENE 9 11 5 6 - - 0.0
 
Date/Time
EST
Temp
°C
App
Temp
°C
Dew
Point
Rel
Hum
%
Delta-T
°C
Wind Press
QNH
hPa
Press
MSL
hPa
Rain
since 9 am
mm
Dir
 
Spd
km/h
Gust
km/h
Spd
kts
Gust
kts
21/11:30pm 4.5 1.7 3.3 92 0.5 ENE 7 9 4 5 - - 0.0
21/11:00pm 4.9 2.3 3.4 90 0.6 ENE 6 7 3 4 - - 0.0
21/10:30pm 5.6 2.9 3.9 89 0.7 ENE 7 11 4 6 - - 0.0
21/10:00pm 5.9 2.9 4.2 89 0.7 ENE 9 11 5 6 - - 0.0
21/09:30pm 6.2 3.3 4.7 90 0.7 ENE 9 11 5 6 - - 0.0
21/09:00pm 6.3 3.8 4.9 91 0.6 ENE 7 9 4 5 - - 0.0
21/08:30pm 6.0 3.7 4.8 92 0.5 E 6 7 3 4 - - 0.0
21/08:00pm 6.0 3.7 4.6 91 0.6 E 6 6 3 3 - - 0.0
21/07:30pm 6.3 4.0 4.8 90 0.7 E 6 7 3 4 - - 0.0
21/07:00pm 6.6 4.3 4.8 88 0.8 E 6 7 3 4 - - 0.0
21/06:30pm 7.8 5.6 5.4 85 1.1 E 6 7 3 4 - - 0.0
21/06:00pm 8.7 6.6 5.6 81 1.4 E 6 7 3 4 - - 0.0
21/05:30pm 9.6 7.4 5.4 75 1.9 ENE 6 9 3 5 - - 0.0
21/05:00pm 10.7 8.6 5.9 72 2.2 ENE 6 7 3 4 - - 0.0
21/04:30pm 12.0 9.8 6.1 67 2.8 NE 7 11 4 6 - - 0.0
21/04:00pm 12.7 10.5 6.1 64 3.1 NE 7 11 4 6 - - 0.0
21/03:30pm 11.6 10.0 6.5 71 2.4 ENE 4 7 2 4 - - 0.0
21/03:00pm 11.1 8.8 5.8 70 2.5 NE 7 11 4 6 - - 0.0
21/02:30pm 10.9 8.8 5.7 70 2.4 NE 6 7 3 4 - - 0.0
21/02:00pm 10.6 7.9 5.6 71 2.3 NNE 9 13 5 7 - - 0.0
21/01:30pm 10.6 7.9 5.6 71 2.3 N 9 13 5 7 - - 0.0
21/01:00pm 10.5 7.4 5.5 71 2.3 NNE 11 17 6 9 - - 0.0
21/12:30pm 10.1 7.1 5.9 75 2.0 NNE 11 19 6 10 - - 0.0
21/12:00pm 9.7 6.3 6.1 78 1.7 NNE 13 19 7 10 - - 0.0
21/11:30am 9.2 5.9 6.6 84 1.2 N 13 19 7 10 - - 0.0
21/11:00am 8.3 5.5 7.1 92 0.6 NNE 11 17 6 9 - - 0.0
21/10:30am 7.3 4.8 6.6 95 0.3 NNE 9 15 5 8 - - 0.0
21/10:00am 6.2 3.9 5.6 96 0.3 NNE 7 13 4 7 - - 0.0
21/09:30am 5.5 3.0 4.9 96 0.3 NE 7 13 4 7 - - 0.0
21/09:00am 4.8 2.2 4.2 96 0.3 ENE 7 13 4 7 - - 0.0
21/08:30am 4.3 1.6 3.7 96 0.3 ENE 7 11 4 6 - - 0.0
21/08:00am 4.2 1.1 3.6 96 0.3 ENE 9 11 5 6 - - 0.0
21/07:30am 4.0 1.8 3.4 96 0.2 NNE 4 4 2 2 - - 0.0
21/07:00am 4.3 1.8 3.7 96 0.3 ENE 6 9 3 5 - - 0.0
21/06:30am 4.3 1.8 3.7 96 0.3 NE 6 7 3 4 - - 0.0
21/06:00am 4.3 1.6 3.7 96 0.3 ENE 7 11 4 6 - - 0.0
21/05:30am 4.3 1.6 3.7 96 0.3 ENE 7 9 4 5 - - 0.0
21/05:00am 4.3 1.6 3.7 96 0.3 ENE 7 11 4 6 - - 0.0
21/04:30am 4.3 1.8 3.9 97 0.2 ENE 6 7 3 4 - - 0.0
21/04:00am 4.1 1.6 3.5 96 0.2 ENE 6 9 3 5 - - 0.0
21/03:30am 4.3 1.6 3.7 96 0.3 ENE 7 13 4 7 - - 0.0
21/03:00am 3.7 0.9 3.1 96 0.2 ENE 7 9 4 5 - - 0.0
21/02:30am 3.4 0.5 2.8 96 0.2 E 7 11 4 6 - - 0.0
21/02:00am 2.7 0.7 2.1 96 0.2 ENE 2 6 1 3 - - 0.0
21/01:30am 2.5 0.8 1.8 95 0.3 CALM 0 4 0 2 - - 0.0
21/01:00am 2.7 -0.1 2.0 95 0.3 E 6 7 3 4 - - 0.0
21/12:30am 2.8 0.4 2.1 95 0.3 SE 4 6 2 3 - - 0.0
21/12:00am 3.2 0.8 2.3 94 0.4 ENE 4 6 2 3 - - 0.0
 
Date/Time
EST
Temp
°C
App
Temp
°C
Dew
Point
Rel
Hum
%
Delta-T
°C
Wind Press
QNH
hPa
Press
MSL
hPa
Rain
since 9 am
mm
Dir
 
Spd
km/h
Gust
km/h
Spd
kts
Gust
kts
20/11:30pm 3.5 1.2 2.5 93 0.4 ENE 4 6 2 3 - - 0.0
20/11:00pm 3.9 2.0 2.7 92 0.5 ENE 2 4 1 2 - - 0.0
20/10:30pm 4.8 2.6 3.5 91 0.5 ENE 4 6 2 3 - - 0.0
20/10:00pm 5.3 3.1 3.6 89 0.7 E 4 4 2 2 - - 0.0
20/09:30pm 6.3 4.3 4.5 88 0.8 ENE 4 4 2 2 - - 0.0
20/09:00pm 6.5 4.6 4.8 89 0.7 E 4 7 2 4 - - 0.0
20/08:30pm 6.5 4.3 5.1 91 0.6 E 6 7 3 4 - - 0.0
20/08:00pm 6.4 4.1 5.0 91 0.6 E 6 7 3 4 - - 0.0
20/07:30pm 6.0 3.7 4.6 91 0.6 E 6 7 3 4 - - 0.0
20/07:00pm 6.1 4.1 4.6 90 0.7 ESE 4 6 2 3 - - 0.0
20/06:30pm 6.6 5.1 4.8 88 0.8 SE 2 4 1 2 - - 0.0
20/06:00pm 7.7 5.8 5.0 83 1.2 ENE 4 4 2 2 - - 0.0
20/05:30pm 9.1 7.3 5.5 78 1.6 E 4 6 2 3 - - 0.0
20/05:00pm 9.8 8.4 5.4 74 2.0 E 2 6 1 3 - - 0.0
20/04:30pm 10.7 8.9 5.3 69 2.5 E 4 7 2 4 - - 0.0
20/04:00pm 10.9 8.5 5.2 68 2.6 ESE 7 9 4 5 - - 0.0
20/03:30pm 11.1 8.9 5.4 68 2.6 E 6 9 3 5 - - 0.0
20/03:00pm 11.6 9.5 5.7 67 2.8 NE 6 9 3 5 - - 0.0
20/02:30pm 10.9 8.1 5.2 68 2.6 ENE 9 13 5 7 - - 0.0
20/02:00pm 11.0 9.1 5.1 67 2.7 ENE 4 6 2 3 - - 0.0
20/01:30pm 10.7 8.8 5.0 68 2.6 NW 4 7 2 4 - - 0.0
20/01:00pm 10.6 8.8 5.2 69 2.5 NW 4 7 2 4 - - 0.0
20/12:30pm 10.4 8.9 5.2 70 2.4 WNW 2 6 1 3 - - 0.0
20/12:00pm 10.1 7.8 4.9 70 2.4 W 6 7 3 4 - - 0.0
20/11:30am 10.3 8.4 5.1 70 2.4 SW 4 6 2 3 - - 0.0
20/11:00am 10.3 8.9 5.3 71 2.3 SW 2 7 1 4 - - 0.0
20/10:30am 9.2 6.7 4.6 73 2.1 NE 7 11 4 6 - - 0.0
20/10:00am 8.7 7.4 5.8 82 1.3 ESE 2 6 1 3 - - 0.0
20/09:30am 8.2 6.7 6.8 91 0.7 E 4 4 2 2 - - 0.0
20/09:00am 7.4 5.8 6.5 94 0.4 ENE 4 4 2 2 - - 0.0
20/08:30am 7.0 6.1 6.1 94 0.4 CALM 0 4 0 2 - - 0.0
20/08:00am 6.8 5.9 5.9 94 0.4 CALM 0 0 0 0 - - 0.0
20/07:30am 6.6 5.3 5.9 95 0.3 E 2 4 1 2 - - 0.0
20/07:00am 6.3 4.9 5.6 95 0.3 ENE 2 4 1 2 - - 0.0
20/06:30am 6.0 4.2 5.3 95 0.3 ENE 4 6 2 3 - - 0.0
20/06:00am 5.3 3.7 4.4 94 0.4 E 2 4 1 2 - - 0.0
20/05:30am 4.9 3.6 3.9 93 0.4 CALM 0 0 0 0 - - 0.0
20/05:00am 5.5 3.9 4.3 92 0.5 E 2 2 1 1 - - 0.0
20/04:30am 6.2 4.3 4.8 91 0.6 E 4 4 2 2 - - 0.0
20/04:00am 6.5 4.6 5.0 90 0.7 ESE 4 4 2 2 - - 0.0
20/03:30am 7.1 5.0 5.6 90 0.7 ESE 6 9 3 5 - - 0.0
20/03:00am 7.3 6.3 5.6 89 0.8 CALM 0 0 0 0 - - 0.0
20/02:30am 7.5 6.5 5.6 88 0.9 CALM 0 0 0 0 - - 0.0
20/02:00am 7.7 6.7 5.5 86 1.0 CALM 0 2 0 1 - - 0.0
20/01:30am 7.9 6.1 5.5 85 1.1 SW 4 9 2 5 - - 0.0
20/01:00am 8.1 6.3 5.4 83 1.2 SSE 4 9 2 5 - - 0.0
20/12:30am 8.5 6.4 5.6 82 1.3 E 6 7 3 4 - - 0.0
20/12:00am 8.3 6.9 5.4 82 1.3 SSE 2 4 1 2 - - 0.0
 
Date/Time
EST
Temp
°C
App
Temp
°C
Dew
Point
Rel
Hum
%
Delta-T
°C
Wind Press
QNH
hPa
Press
MSL
hPa
Rain
since 9 am
mm
Dir
 
Spd
km/h
Gust
km/h
Spd
kts
Gust
kts
19/11:30pm 8.4 6.6 5.3 81 1.4 S 4 4 2 2 - - 0.0

Other Formats:

Comma delimited format used in spreadsheet applications
http://www.bom.gov.au/fwo/IDV60801/IDV60801.95832.axf

JavaScript Object Notation format (JSON) in row-major order
http://www.bom.gov.au/fwo/IDV60801/IDV60801.95832.json